createdAt,value
2022-10-12T00:01:11.942Z,4.25
2022-10-12T00:06:16.200Z,4.00
2022-10-12T00:08:45.297Z,4.10
2022-10-12T00:11:18.529Z,4.57
2022-10-12T00:13:46.989Z,4.18
2022-10-12T00:16:16.663Z,3.75
2022-10-12T00:18:44.279Z,4.15
2022-10-12T00:21:16.875Z,3.88
2022-10-12T00:23:45.960Z,3.47
2022-10-12T00:26:20.777Z,4.25
2022-10-12T00:28:54.526Z,4.07
2022-10-12T00:31:22.260Z,3.70
2022-10-12T00:33:49.739Z,3.50
2022-10-12T00:36:22.286Z,3.97
2022-10-12T00:38:52.422Z,4.00
2022-10-12T00:41:23.813Z,3.42
2022-10-12T00:43:57.622Z,3.65
2022-10-12T00:46:46.123Z,3.85
2022-10-12T00:49:23.681Z,3.78
2022-10-12T00:51:57.784Z,3.33
2022-10-12T00:54:31.387Z,3.80
2022-10-12T00:57:01.580Z,3.42
2022-10-12T00:59:34.320Z,3.38
2022-10-12T01:02:02.900Z,3.28
2022-10-12T01:04:32.979Z,3.53
2022-10-12T01:07:01.412Z,3.30
2022-10-12T01:09:30.005Z,3.67
2022-10-12T01:11:58.981Z,3.42
2022-10-12T01:14:26.652Z,3.25
2022-10-12T01:17:21.237Z,3.25
2022-10-12T01:20:17.210Z,4.03
2022-10-12T01:23:06.093Z,3.40
2022-10-12T01:25:48.932Z,4.07
2022-10-12T01:28:59.255Z,3.70
2022-10-12T01:31:40.981Z,4.20
2022-10-12T01:34:24.313Z,3.90
2022-10-12T01:37:22.242Z,3.75
2022-10-12T01:39:54.841Z,3.42
2022-10-12T01:42:28.519Z,4.63
2022-10-12T01:45:09.165Z,3.55
2022-10-12T01:47:40.540Z,3.53
2022-10-12T01:50:12.329Z,3.72
2022-10-12T01:52:57.914Z,3.42
2022-10-12T01:55:44.321Z,3.80
2022-10-12T01:58:51.539Z,3.45
2022-10-12T02:01:46.407Z,3.95
2022-10-12T02:04:33.101Z,3.65
2022-10-12T02:07:09.961Z,3.55
2022-10-12T02:09:39.983Z,3.63
2022-10-12T02:12:19.031Z,3.85
2022-10-12T02:14:56.099Z,3.60
2022-10-12T02:17:24.080Z,4.10
2022-10-12T02:20:00.493Z,3.47
2022-10-12T02:22:35.802Z,3.80
2022-10-12T02:25:09.022Z,4.25
2022-10-12T02:27:41.989Z,3.40
2022-10-12T02:30:13.630Z,3.72
2022-10-12T02:33:08.506Z,3.60
2022-10-12T02:35:44.062Z,3.58
2022-10-12T02:38:38.539Z,3.67
2022-10-12T02:41:12.923Z,3.92
2022-10-12T02:43:53.255Z,3.38
2022-10-12T02:46:23.457Z,3.20
2022-10-12T02:48:54.855Z,3.58
2022-10-12T02:51:24.545Z,3.65
2022-10-12T02:53:53.347Z,3.60
2022-10-12T02:56:21.492Z,3.60
2022-10-12T02:58:49.382Z,3.50
2022-10-12T03:01:18.649Z,3.30
2022-10-12T03:03:47.928Z,4.00
2022-10-12T03:06:15.990Z,3.38
2022-10-12T03:08:43.351Z,3.75
2022-10-12T03:13:42.071Z,3.20
2022-10-12T03:16:11.638Z,4.00
2022-10-12T03:18:40.325Z,3.20
2022-10-12T03:21:10.858Z,3.35
2022-10-12T03:23:38.455Z,4.55
2022-10-12T03:26:06.222Z,3.85
2022-10-12T03:28:33.743Z,3.50
2022-10-12T03:31:01.380Z,4.00
2022-10-12T03:33:29.753Z,3.33
2022-10-12T03:35:57.715Z,3.28
2022-10-12T03:38:27.664Z,2.78
2022-10-12T03:40:55.485Z,3.22
2022-10-12T03:43:23.336Z,4.22
2022-10-12T03:45:50.815Z,3.53
2022-10-12T03:48:19.824Z,3.83
2022-10-12T03:50:51.461Z,3.60
2022-10-12T03:53:20.700Z,3.10
2022-10-12T03:55:48.079Z,2.92
2022-10-12T03:58:15.951Z,2.90
2022-10-12T04:03:12.919Z,2.90
2022-10-12T04:05:41.007Z,3.70
2022-10-12T04:08:08.469Z,3.35
2022-10-12T04:13:03.950Z,2.70
2022-10-12T04:15:33.722Z,2.97
2022-10-12T04:18:03.217Z,2.92
2022-10-12T04:20:30.647Z,3.22
2022-10-12T04:22:58.135Z,3.35
2022-10-12T04:27:58.977Z,2.58
2022-10-12T04:30:28.108Z,3.13
2022-10-12T04:32:56.624Z,2.90
2022-10-12T04:35:24.540Z,2.67
2022-10-12T04:37:53.121Z,3.00
2022-10-12T04:42:49.326Z,2.80
2022-10-12T04:45:16.677Z,3.08
2022-10-12T04:52:39.624Z,3.08
2022-10-12T04:57:37.152Z,2.83
2022-10-12T05:00:06.227Z,3.20
2022-10-12T05:02:34.228Z,3.08
2022-10-12T05:05:01.821Z,2.70
2022-10-12T05:07:30.151Z,2.83
2022-10-12T05:09:57.521Z,2.97
2022-10-12T05:12:26.340Z,3.17
2022-10-12T05:14:53.724Z,3.10
2022-10-12T05:17:21.561Z,2.80
2022-10-12T05:22:18.889Z,3.30
2022-10-12T05:27:21.115Z,2.83
2022-10-12T05:29:48.673Z,2.90
2022-10-12T05:32:17.416Z,2.80
2022-10-12T05:34:44.821Z,2.95
2022-10-12T05:37:12.699Z,2.80
2022-10-12T05:42:08.218Z,3.70
2022-10-12T05:44:35.668Z,4.30
2022-10-12T05:47:03.763Z,4.82
2022-10-12T05:49:31.133Z,4.35
2022-10-12T05:56:54.796Z,3.95
2022-10-12T05:59:22.529Z,3.97
2022-10-12T06:01:50.507Z,4.30
2022-10-12T06:04:18.418Z,4.10
2022-10-12T06:06:47.530Z,4.13
2022-10-12T06:11:44.532Z,4.50
2022-10-12T06:14:12.758Z,4.20
2022-10-12T06:16:40.290Z,4.22
2022-10-12T06:21:39.059Z,4.40
2022-10-12T06:26:34.274Z,4.20
2022-10-12T06:29:02.107Z,4.55
2022-10-12T06:31:30.677Z,4.43
2022-10-12T06:33:59.875Z,4.47
2022-10-12T06:36:27.449Z,4.88
2022-10-12T06:38:55.219Z,4.90
2022-10-12T06:41:23.877Z,4.43
2022-10-12T06:43:52.359Z,5.13
2022-10-12T06:46:20.291Z,5.13
2022-10-12T06:48:47.682Z,4.68
2022-10-12T06:56:10.893Z,4.13
2022-10-12T06:58:39.614Z,4.47
2022-10-12T07:01:10.842Z,4.60
2022-10-12T07:05:14.700Z,4.35
2022-10-12T07:07:43.171Z,5.50
2022-10-12T07:10:10.681Z,5.40
2022-10-12T07:12:39.776Z,6.28
2022-10-12T07:15:08.115Z,4.68
2022-10-12T07:17:35.819Z,4.45
2022-10-12T07:20:08.979Z,5.05
2022-10-12T07:22:36.423Z,4.68
2022-10-12T07:27:32.752Z,4.25
2022-10-12T07:30:00.615Z,4.15
2022-10-12T07:32:28.982Z,4.28
2022-10-12T07:34:56.406Z,4.22
2022-10-12T07:37:23.875Z,4.45
2022-10-12T07:39:57.115Z,4.43
2022-10-12T07:42:25.966Z,4.63
2022-10-12T07:44:54.112Z,4.43
2022-10-12T07:47:25.513Z,4.75
2022-10-12T07:49:52.915Z,4.63
2022-10-12T07:52:20.290Z,4.40
2022-10-12T07:54:47.790Z,4.32
2022-10-12T07:57:15.902Z,4.60
2022-10-12T07:59:44.265Z,4.40
2022-10-12T08:02:12.496Z,4.03
2022-10-12T08:04:41.272Z,4.47
2022-10-12T08:07:08.827Z,4.32
2022-10-12T08:09:37.571Z,4.53
2022-10-12T08:12:05.280Z,4.97
2022-10-12T08:14:33.095Z,4.15
2022-10-12T08:17:00.444Z,4.35
2022-10-12T08:19:33.019Z,4.55
2022-10-12T08:22:03.435Z,4.03
2022-10-12T08:24:31.338Z,4.50
2022-10-12T08:27:01.382Z,4.93
2022-10-12T08:29:29.082Z,5.30
2022-10-12T08:31:57.032Z,4.70
2022-10-12T08:34:25.437Z,4.50
2022-10-12T08:36:53.157Z,4.65
2022-10-12T08:39:21.192Z,5.35
2022-10-12T08:42:12.207Z,4.93
2022-10-12T08:45:13.256Z,4.80
2022-10-12T08:47:45.782Z,5.22
2022-10-12T08:50:48.805Z,5.13
2022-10-12T08:53:25.802Z,5.15
2022-10-12T08:55:54.321Z,4.97
2022-10-12T08:58:32.300Z,5.53
2022-10-12T09:01:29.673Z,5.32
2022-10-12T09:04:22.720Z,5.32
2022-10-12T09:07:08.420Z,5.32
2022-10-12T09:09:56.062Z,5.20
2022-10-12T09:12:51.319Z,5.85
2022-10-12T09:15:25.476Z,6.00
2022-10-12T09:17:56.122Z,6.80
2022-10-12T09:20:35.319Z,5.53
2022-10-12T09:23:17.811Z,5.72
2022-10-12T09:25:46.549Z,5.55
2022-10-12T09:28:21.711Z,5.30
2022-10-12T09:31:18.305Z,6.03
2022-10-12T09:34:00.102Z,5.47
2022-10-12T09:36:48.526Z,6.40
2022-10-12T09:39:23.500Z,6.28
2022-10-12T09:41:54.886Z,6.60
2022-10-12T09:44:32.470Z,6.00
2022-10-12T09:47:02.543Z,6.80
2022-10-12T09:49:47.247Z,6.40
2022-10-12T09:52:18.463Z,7.80
2022-10-12T09:54:54.187Z,6.00
2022-10-12T09:57:27.242Z,7.13
2022-10-12T09:59:56.435Z,6.05
2022-10-12T10:02:26.511Z,6.70
2022-10-12T10:05:24.517Z,6.32
2022-10-12T10:07:54.817Z,6.47
2022-10-12T10:10:30.086Z,6.45
2022-10-12T10:13:03.052Z,6.55
2022-10-12T10:15:44.941Z,6.57
2022-10-12T10:18:48.172Z,6.93
2022-10-12T10:21:27.177Z,7.13
2022-10-12T10:24:12.469Z,7.05
2022-10-12T10:27:05.326Z,6.63
2022-10-12T10:29:43.247Z,7.05
2022-10-12T10:32:27.404Z,6.70
2022-10-12T10:35:17.750Z,6.72
2022-10-12T10:37:48.383Z,5.70
2022-10-12T10:40:23.320Z,6.57
2022-10-12T10:42:57.973Z,6.68
2022-10-12T10:45:29.536Z,5.78
2022-10-12T10:48:01.639Z,5.90
2022-10-12T10:50:36.667Z,6.90
2022-10-12T10:53:08.118Z,5.93
2022-10-12T10:56:01.411Z,5.80
2022-10-12T10:58:39.952Z,6.43
2022-10-12T11:01:29.501Z,6.25
2022-10-12T11:04:04.488Z,6.63
2022-10-12T11:06:45.995Z,6.55
2022-10-12T11:09:26.533Z,6.43
2022-10-12T11:12:06.511Z,6.80
2022-10-12T11:14:44.094Z,5.75
2022-10-12T11:17:36.114Z,6.93
2022-10-12T11:20:35.159Z,6.78
2022-10-12T11:23:18.919Z,5.82
2022-10-12T11:26:02.918Z,6.70
2022-10-12T11:28:33.797Z,6.60
2022-10-12T11:31:02.735Z,6.05
2022-10-12T11:33:38.643Z,5.90
2022-10-12T11:36:19.585Z,5.70
2022-10-12T11:38:59.433Z,4.32
2022-10-12T11:41:44.970Z,4.50
2022-10-12T11:44:32.342Z,4.03
2022-10-12T11:47:12.806Z,4.30
2022-10-12T11:49:58.159Z,4.20
2022-10-12T11:52:36.305Z,4.07
2022-10-12T11:55:28.741Z,4.05
2022-10-12T11:58:08.724Z,3.33
2022-10-12T12:00:40.531Z,3.38
2022-10-12T12:03:43.911Z,4.18
2022-10-12T12:06:29.645Z,3.70
2022-10-12T12:09:03.714Z,3.92
2022-10-12T12:11:33.942Z,3.42
2022-10-12T12:14:26.215Z,3.55
2022-10-12T12:17:18.912Z,3.40
2022-10-12T12:19:54.932Z,3.60
2022-10-12T12:22:26.611Z,3.58
2022-10-12T12:25:27.695Z,3.20
2022-10-12T12:27:57.524Z,3.40
2022-10-12T12:30:29.003Z,3.55
2022-10-12T12:33:04.756Z,3.80
2022-10-12T12:35:50.327Z,3.85
2022-10-12T12:38:20.933Z,3.72
2022-10-12T12:41:19.202Z,4.32
2022-10-12T12:44:04.242Z,3.50
2022-10-12T12:46:56.580Z,3.70
2022-10-12T12:49:47.783Z,3.60
2022-10-12T12:52:24.521Z,3.88
2022-10-12T12:54:56.139Z,3.28
2022-10-12T12:57:26.489Z,3.45
2022-10-12T13:00:16.118Z,3.30
2022-10-12T13:03:07.990Z,3.70
2022-10-12T13:06:03.544Z,3.42
2022-10-12T13:09:02.504Z,3.58
2022-10-12T13:11:31.391Z,3.58
2022-10-12T13:13:59.894Z,3.42
2022-10-12T13:17:30.548Z,3.28
2022-10-12T13:19:37.426Z,3.35
2022-10-12T13:22:15.241Z,3.40
2022-10-12T13:24:50.408Z,3.20
2022-10-12T13:27:34.478Z,3.38
2022-10-12T13:30:25.498Z,3.25
2022-10-12T13:32:57.940Z,3.30
2022-10-12T13:35:34.260Z,3.45
2022-10-12T13:38:21.863Z,2.90
2022-10-12T13:40:54.195Z,3.35
2022-10-12T13:43:54.167Z,3.03
2022-10-12T13:47:05.384Z,3.20
2022-10-12T13:49:42.793Z,2.90
2022-10-12T13:52:13.898Z,3.13
2022-10-12T13:54:44.034Z,3.42
2022-10-12T13:57:50.560Z,3.38
2022-10-12T14:00:22.761Z,3.72
2022-10-12T14:03:02.872Z,3.50
2022-10-12T14:05:33.735Z,3.40
2022-10-12T14:08:15.856Z,4.07
2022-10-12T14:10:46.803Z,3.55
2022-10-12T14:13:20.934Z,3.20
2022-10-12T14:15:49.432Z,3.63
2022-10-12T14:18:43.418Z,3.13
2022-10-12T14:21:18.483Z,3.83
2022-10-12T14:24:00.332Z,3.38
2022-10-12T14:26:35.219Z,5.10
2022-10-12T14:29:45.383Z,3.22
2022-10-12T14:32:12.984Z,3.92
2022-10-12T14:34:46.565Z,3.90
2022-10-12T14:37:16.627Z,3.47
2022-10-12T14:39:46.400Z,3.50
2022-10-12T14:42:29.788Z,4.05
2022-10-12T14:44:59.058Z,3.47
2022-10-12T14:47:41.775Z,3.50
2022-10-12T14:50:18.095Z,3.65
2022-10-12T14:52:48.594Z,3.53
2022-10-12T14:55:19.346Z,2.90
2022-10-12T14:57:48.150Z,3.30
2022-10-12T15:00:22.492Z,3.70
2022-10-12T15:02:51.598Z,3.28
2022-10-12T15:05:22.489Z,3.80
2022-10-12T15:07:52.931Z,3.30
2022-10-12T15:10:22.960Z,3.60
2022-10-12T15:12:51.278Z,3.28
2022-10-12T15:15:42.425Z,3.10
2022-10-12T15:18:10.405Z,3.35
2022-10-12T15:20:38.898Z,3.78
2022-10-12T15:23:07.981Z,3.45
2022-10-12T15:25:35.255Z,3.80
2022-10-12T15:28:05.248Z,3.88
2022-10-12T15:30:34.292Z,3.72
2022-10-12T15:33:02.059Z,4.07
2022-10-12T15:35:34.565Z,4.70
2022-10-12T15:38:02.118Z,3.50
2022-10-12T15:40:31.711Z,4.18
2022-10-12T15:43:00.746Z,3.20
2022-10-12T15:45:32.892Z,3.83
2022-10-12T15:48:01.704Z,3.70
2022-10-12T15:50:34.474Z,4.10
2022-10-12T15:53:04.065Z,4.25
2022-10-12T15:55:31.974Z,4.25
2022-10-12T15:58:00.432Z,4.30
2022-10-12T16:00:29.664Z,4.65
2022-10-12T16:02:59.885Z,3.78
2022-10-12T16:05:36.986Z,4.15
2022-10-12T16:08:06.089Z,3.80
2022-10-12T16:10:37.154Z,3.97
2022-10-12T16:13:07.092Z,3.75
2022-10-12T16:15:36.723Z,4.00
2022-10-12T16:18:05.848Z,3.85
2022-10-12T16:20:37.592Z,3.53
2022-10-12T16:23:14.379Z,3.58
2022-10-12T16:25:43.754Z,3.30
2022-10-12T16:28:12.734Z,3.63
2022-10-12T16:30:42.358Z,3.92
2022-10-12T16:33:11.311Z,4.22
2022-10-12T16:35:42.060Z,3.88
2022-10-12T16:38:09.948Z,3.22
2022-10-12T16:40:43.777Z,3.47
2022-10-12T16:43:12.423Z,2.83
2022-10-12T16:45:39.818Z,3.13
2022-10-12T16:48:07.732Z,3.47
2022-10-12T16:50:39.977Z,3.20
2022-10-12T16:53:08.757Z,3.40
2022-10-12T16:55:38.975Z,3.30
2022-10-12T16:58:08.804Z,3.85
2022-10-12T17:00:36.889Z,2.85
2022-10-12T17:03:05.616Z,2.83
2022-10-12T17:05:32.989Z,3.60
2022-10-12T17:08:02.328Z,2.90
2022-10-12T17:10:29.837Z,3.50
2022-10-12T17:12:57.666Z,3.72
2022-10-12T17:15:25.079Z,3.72
2022-10-12T17:17:54.122Z,3.38
2022-10-12T17:20:21.715Z,3.60
2022-10-12T17:22:49.933Z,3.67
2022-10-12T17:25:17.775Z,3.97
2022-10-12T17:27:47.500Z,3.85
2022-10-12T17:30:16.123Z,4.03
2022-10-12T17:32:43.954Z,3.67
2022-10-12T17:35:11.915Z,4.22
2022-10-12T17:37:42.801Z,3.75
2022-10-12T17:40:11.582Z,4.30
2022-10-12T17:42:39.436Z,3.83
2022-10-12T17:45:07.804Z,3.78
2022-10-12T17:47:35.313Z,4.32
2022-10-12T17:50:04.702Z,4.68
2022-10-12T17:52:37.912Z,5.28
2022-10-12T17:55:09.420Z,5.55
2022-10-12T17:57:43.419Z,5.85
2022-10-12T18:00:11.787Z,5.45
2022-10-12T18:02:40.745Z,5.40
2022-10-12T18:05:10.082Z,5.80
2022-10-12T18:07:40.707Z,5.07
2022-10-12T18:10:09.062Z,5.63
2022-10-12T18:12:36.901Z,5.18
2022-10-12T18:15:07.461Z,4.97
2022-10-12T18:17:35.598Z,4.60
2022-10-12T18:20:04.978Z,5.13
2022-10-12T18:22:33.568Z,4.68
2022-10-12T18:25:00.923Z,5.20
2022-10-12T18:27:29.287Z,4.63
2022-10-12T18:29:56.654Z,5.00
2022-10-12T18:32:26.480Z,4.28
2022-10-12T18:34:55.128Z,4.05
2022-10-12T18:37:22.553Z,3.70
2022-10-12T18:39:49.858Z,4.00
2022-10-12T18:42:17.687Z,3.63
2022-10-12T18:44:45.661Z,3.03
2022-10-12T18:47:13.106Z,3.30
2022-10-12T18:49:40.665Z,3.30
2022-10-12T18:52:08.122Z,3.72
2022-10-12T18:54:35.524Z,3.45
2022-10-12T18:57:04.261Z,3.75
2022-10-12T18:59:32.311Z,3.88
2022-10-12T19:02:01.568Z,4.22
2022-10-12T19:04:28.953Z,3.58
2022-10-12T19:06:57.995Z,3.47
2022-10-12T19:09:25.464Z,4.07
2022-10-12T19:11:55.899Z,3.10
2022-10-12T19:14:24.863Z,3.03
2022-10-12T19:16:52.540Z,3.05
2022-10-12T19:19:21.684Z,3.42
2022-10-12T19:21:51.322Z,3.35
2022-10-12T19:24:20.842Z,3.58
2022-10-12T19:26:48.751Z,3.25
2022-10-12T19:29:17.236Z,2.92
2022-10-12T19:31:48.350Z,3.00
2022-10-12T19:34:18.327Z,2.67
2022-10-12T19:36:46.201Z,2.75
2022-10-12T19:39:16.957Z,2.70
2022-10-12T19:41:48.885Z,2.38
2022-10-12T19:44:20.795Z,3.03
2022-10-12T19:46:49.253Z,2.80
2022-10-12T19:49:18.135Z,2.47
2022-10-12T19:51:45.710Z,2.25
2022-10-12T19:54:14.603Z,2.25
2022-10-12T19:56:42.353Z,1.90
2022-10-12T19:59:09.898Z,1.88
2022-10-12T20:01:39.450Z,1.80
2022-10-12T20:04:10.122Z,1.95
2022-10-12T20:06:38.659Z,1.77
2022-10-12T20:09:10.043Z,1.83
2022-10-12T20:11:38.826Z,1.77
2022-10-12T20:14:07.204Z,1.77
2022-10-12T20:16:36.995Z,1.77
2022-10-12T20:19:05.694Z,2.10
2022-10-12T20:21:33.241Z,2.00
2022-10-12T20:24:02.680Z,1.77
2022-10-12T20:26:31.044Z,1.77
2022-10-12T20:28:58.556Z,1.77
2022-10-12T20:31:27.667Z,1.75
2022-10-12T20:33:56.676Z,1.35
2022-10-12T20:36:28.604Z,1.90
2022-10-12T20:38:58.068Z,1.92
2022-10-12T20:41:26.404Z,1.73
2022-10-12T20:43:56.704Z,1.77
2022-10-12T20:46:27.297Z,2.15
2022-10-12T20:48:59.465Z,1.83
2022-10-12T20:51:32.340Z,1.80
2022-10-12T20:54:02.491Z,2.17
2022-10-12T20:56:31.691Z,1.77
2022-10-12T20:59:00.654Z,2.53
2022-10-12T21:01:29.498Z,2.33
2022-10-12T21:03:57.333Z,2.15
2022-10-12T21:06:25.153Z,2.05
2022-10-12T21:08:56.280Z,2.30
2022-10-12T21:11:24.898Z,2.03
2022-10-12T21:13:52.432Z,2.15
2022-10-12T21:16:20.672Z,2.22
2022-10-12T21:18:48.284Z,2.10
2022-10-12T21:21:18.839Z,2.38
2022-10-12T21:23:58.269Z,3.05
2022-10-12T21:26:30.184Z,2.72
2022-10-12T21:29:00.797Z,2.17
2022-10-12T21:31:32.297Z,3.50
2022-10-12T21:34:04.774Z,2.80
2022-10-12T21:36:35.619Z,2.22
2022-10-12T21:39:08.119Z,2.50
2022-10-12T21:41:36.978Z,1.95
2022-10-12T21:44:06.728Z,2.00
2022-10-12T21:46:35.626Z,2.05
2022-10-12T21:49:08.018Z,2.97
2022-10-12T21:51:37.743Z,2.40
2022-10-12T21:54:06.974Z,2.22
2022-10-12T21:56:37.124Z,2.30
2022-10-12T21:59:05.817Z,1.90
2022-10-12T22:01:38.608Z,2.45
2022-10-12T22:04:13.581Z,3.60
2022-10-12T22:06:44.234Z,2.33
2022-10-12T22:09:17.000Z,1.98
2022-10-12T22:11:46.714Z,1.90
2022-10-12T22:14:16.235Z,2.08
2022-10-12T22:16:45.810Z,2.30
2022-10-12T22:19:19.044Z,2.35
2022-10-12T22:21:52.598Z,2.35
2022-10-12T22:24:27.779Z,1.83
2022-10-12T22:26:55.975Z,1.90
2022-10-12T22:29:23.681Z,2.10
2022-10-12T22:31:53.089Z,1.60
2022-10-12T22:34:20.531Z,1.65
2022-10-12T22:36:49.043Z,1.42
2022-10-12T22:39:25.541Z,1.70
2022-10-12T22:41:54.551Z,2.20
2022-10-12T22:44:22.312Z,2.03
2022-10-12T22:46:54.779Z,2.40
2022-10-12T22:49:23.415Z,2.20
2022-10-12T22:51:50.851Z,2.20
2022-10-12T22:54:20.921Z,1.73
2022-10-12T22:56:51.559Z,2.17
2022-10-12T22:59:20.254Z,2.15
2022-10-12T23:01:48.073Z,2.75
2022-10-12T23:04:16.299Z,2.00
2022-10-12T23:06:43.738Z,1.90
2022-10-12T23:09:13.134Z,2.03
2022-10-12T23:11:41.020Z,1.95
2022-10-12T23:14:11.004Z,2.17
2022-10-12T23:16:38.816Z,2.22
2022-10-12T23:19:06.305Z,1.60
2022-10-12T23:21:34.687Z,1.92
2022-10-12T23:24:05.705Z,2.40
2022-10-12T23:26:33.935Z,2.08
2022-10-12T23:29:02.392Z,2.08
2022-10-12T23:31:30.763Z,1.70
2022-10-12T23:33:59.933Z,2.33
2022-10-12T23:36:28.093Z,2.10
2022-10-12T23:38:56.005Z,2.15
2022-10-12T23:41:24.339Z,2.15
2022-10-12T23:43:51.720Z,1.95
2022-10-12T23:46:19.598Z,1.85
2022-10-12T23:48:46.933Z,2.20
2022-10-12T23:51:18.249Z,2.20
2022-10-12T23:53:46.898Z,1.95
2022-10-12T23:56:14.840Z,1.52
2022-10-12T23:58:42.365Z,1.92
